KIKK/IKK METAR and TAF weather

Enter ICAO airport designator
Station Type Date Time Source
KIKK METAR 2019/02/21 11:35 UTC NOAA

KIKK 211135Z AUTO 00000KT 10SM CLR M01/M04 A3009 RMK AO2 T10121045


Station Type Date Time Source
KIKK Decoded METAR 2019/02/21 11:35 UTC NOAA

Kankakee, Greater Kankakee Airport, IL, United States (KIKK) 41-04-17N 087-50-47W
Feb 21, 2019 - 06:35 AM EST / 2019.02.21 1135 UTC
Wind: Calm:0
Visibility: 10 mile(s):0
Sky conditions: clear
Temperature: 29.8 F (-1.2 C)
Dew Point: 23.9 F (-4.5 C)
Relative Humidity: 78%
Pressure (altimeter): 30.09 in. Hg (1018 hPa)
ob: KIKK 211135Z AUTO 00000KT 10SM CLR M01/M04 A3009 RMK AO2 T10121045
cycle: 11

Station Type Date Time Source
KIKK TAF UTC NOAA

Error!


Example: see airport list